Time;durP1;ratioP1;P1;durP2;ratioP2;P2;SDS_P1;SDS_P2;PMS_P1;PMS_P2;Temp;Humidity;BMP_temperature;BMP_pressure;BME280_temperature;BME280_humidity;BME280_pressure;Samples;Min_cycle;Max_cycle;Signal;HPM_P1;HPM_P2
2023/07/15 00:00:23;;;;;;;7.32;3.10;;;;;;;22.15;56.16;100333.63;5011511;28;20365;-68
2023/07/15 00:02:51;;;;;;;3.13;2.63;;;;;;;22.15;55.77;100330.91;5014173;28;20061;-69
2023/07/15 00:05:30;;;;;;;5.65;2.88;;;;;;;22.17;55.50;100342.28;5033470;28;20038;-69
2023/07/15 00:07:56;;;;;;;6.20;2.55;;;;;;;22.17;55.24;100331.44;5033570;28;20029;-69
2023/07/15 00:10:22;;;;;;;4.38;2.85;;;;;;;22.20;55.84;100333.59;5033380;28;20041;-69
2023/07/15 00:12:48;;;;;;;6.88;2.08;;;;;;;22.14;55.74;100337.44;5033343;28;20084;-69
2023/07/15 00:15:14;;;;;;;6.38;3.03;;;;;;;22.19;55.36;100332.00;5033329;28;20048;-69
2023/07/15 00:17:41;;;;;;;3.85;2.33;;;;;;;22.21;54.75;100337.94;5033415;28;20029;-69
2023/07/15 00:20:14;;;;;;;6.88;2.45;;;;;;;22.20;55.28;100336.31;5015537;28;20448;-69
2023/07/15 00:22:44;;;;;;;4.55;2.80;;;;;;;22.22;55.08;100328.69;5033219;28;20021;-69
2023/07/15 00:25:16;;;;;;;6.47;3.10;;;;;;;22.22;55.12;100334.13;5033191;28;20042;-69
2023/07/15 00:27:42;;;;;;;3.88;2.38;;;;;;;22.24;54.80;100334.66;5033001;28;20423;-69
2023/07/15 00:30:09;;;;;;;5.97;2.60;;;;;;;22.23;54.75;100324.88;5033225;28;20388;-69
2023/07/15 00:32:34;;;;;;;4.15;2.20;;;;;;;22.24;55.02;100322.97;5015170;28;20072;-69
2023/07/15 00:35:00;;;;;;;5.65;2.88;;;;;;;22.24;54.67;100318.34;5033085;28;20025;-69
2023/07/15 00:37:25;;;;;;;8.98;2.78;;;;;;;22.24;54.41;100326.50;5032976;28;20029;-69
2023/07/15 00:39:50;;;;;;;5.45;2.17;;;;;;;22.21;54.45;100327.06;5032823;28;20099;-69
2023/07/15 00:42:42;;;;;;;6.30;2.38;;;;;;;22.22;54.91;100322.47;5032692;28;20358;-69
2023/07/15 00:45:07;;;;;;;13.73;3.20;;;;;;;22.20;54.99;100333.59;5018119;28;20108;-69
2023/07/15 00:48:01;;;;;;;7.10;3.07;;;;;;;22.17;55.06;100338.78;5032690;28;20118;-69
2023/07/15 00:50:27;;;;;;;3.58;2.30;;;;;;;22.09;55.39;100335.56;5018351;28;20491;-69
2023/07/15 00:52:53;;;;;;;7.10;3.03;;;;;;;22.08;54.75;100330.41;5032596;28;20033;-69
2023/07/15 00:55:18;;;;;;;9.60;3.30;;;;;;;22.07;55.27;100331.53;5032737;28;20127;-69
2023/07/15 00:57:44;;;;;;;6.78;3.20;;;;;;;22.07;55.01;100335.03;5032735;28;20022;-68
2023/07/15 01:00:10;;;;;;;7.82;3.17;;;;;;;22.07;54.92;100343.19;5032561;28;20033;-68
2023/07/15 01:02:37;;;;;;;4.95;2.45;;;;;;;22.05;54.78;100341.84;5032404;28;20535;-68
2023/07/15 01:05:04;;;;;;;5.30;2.58;;;;;;;22.05;55.39;100342.66;5032500;28;20049;-69
2023/07/15 01:07:30;;;;;;;5.18;2.42;;;;;;;22.04;55.39;100349.19;5032832;28;20478;-69
2023/07/15 01:09:55;;;;;;;3.53;2.28;;;;;;;22.05;55.34;100344.56;5032321;28;20660;-69
2023/07/15 01:12:20;;;;;;;3.95;2.42;;;;;;;22.06;55.54;100346.19;5031821;28;20082;-69
2023/07/15 01:14:47;;;;;;;5.22;2.97;;;;;;;22.01;55.74;100352.50;5032094;28;20128;-68
2023/07/15 01:17:12;;;;;;;6.82;3.20;;;;;;;21.98;55.73;100352.22;5014270;28;20116;-68
2023/07/15 01:19:38;;;;;;;3.63;2.38;;;;;;;21.93;55.58;100350.41;5032138;28;20128;-68
2023/07/15 01:22:05;;;;;;;2.25;2.05;;;;;;;21.87;55.62;100351.50;5032181;28;20038;-69
2023/07/15 01:24:30;;;;;;;5.10;2.72;;;;;;;21.84;55.93;100344.75;5032141;28;20083;-69
2023/07/15 01:27:02;;;;;;;3.45;2.67;;;;;;;21.79;56.68;100352.13;5032010;28;20037;-69
2023/07/15 01:29:28;;;;;;;;;;;;;;;21.80;56.97;100338.28;5032387;28;20025;-69
2023/07/15 01:31:53;;;;;;;3.72;2.55;;;;;;;21.71;56.69;100341.88;5014034;28;19967;-69
2023/07/15 01:34:19;;;;;;;3.78;2.90;;;;;;;21.63;57.36;100341.38;5031821;28;20069;-69
2023/07/15 01:36:46;;;;;;;4.32;2.70;;;;;;;21.55;57.08;100346.63;5031993;28;20486;-69
2023/07/15 01:39:11;;;;;;;5.65;2.45;;;;;;;21.48;57.12;100340.69;5031867;28;20773;-69
2023/07/15 01:41:37;;;;;;;10.13;3.10;;;;;;;21.44;57.81;100345.88;5031714;28;20500;-69
2023/07/15 01:44:04;;;;;;;3.83;2.92;;;;;;;21.38;57.67;100347.00;5031615;28;20037;-69
2023/07/15 01:46:30;;;;;;;5.20;2.38;;;;;;;21.32;57.76;100343.47;5031737;28;20068;-69
2023/07/15 01:48:59;;;;;;;4.20;2.80;;;;;;;21.24;58.60;100344.88;5031459;28;20053;-69
2023/07/15 01:51:24;;;;;;;4.15;2.60;;;;;;;21.21;58.69;100350.03;5031630;28;20035;-69
2023/07/15 01:53:50;;;;;;;3.83;2.58;;;;;;;21.20;58.84;100349.25;5031562;28;20033;-69
2023/07/15 01:56:15;;;;;;;7.97;3.13;;;;;;;21.18;59.01;100354.13;5031442;28;20056;-69
2023/07/15 01:58:41;;;;;;;4.70;3.17;;;;;;;21.14;59.25;100349.53;5031439;28;20030;-69
2023/07/15 02:01:07;;;;;;;3.70;2.70;;;;;;;21.10;59.22;100354.72;5031538;28;20104;-69
2023/07/15 02:03:32;;;;;;;11.60;3.88;;;;;;;21.06;59.70;100345.50;5031039;28;20217;-69
2023/07/15 02:05:57;;;;;;;5.70;3.15;;;;;;;21.02;59.53;100353.41;5031359;28;20060;-69
2023/07/15 02:08:23;;;;;;;3.42;2.83;;;;;;;20.98;60.16;100357.75;5031370;28;20080;-69
2023/07/15 02:10:49;;;;;;;4.82;2.42;;;;;;;20.89;61.08;100362.13;5031358;28;20479;-69
2023/07/15 02:13:15;;;;;;;9.32;2.90;;;;;;;20.87;60.34;100356.16;5030989;28;20034;-69
2023/07/15 02:15:40;;;;;;;6.85;3.70;;;;;;;20.80;60.92;100358.34;5031141;28;20358;-69
2023/07/15 02:18:05;;;;;;;5.68;2.50;;;;;;;20.75;61.06;100356.50;5031101;28;20037;-69
2023/07/15 02:20:31;;;;;;;4.10;2.17;;;;;;;20.69;61.17;100351.34;5030898;28;20044;-69
2023/07/15 02:22:56;;;;;;;3.42;2.58;;;;;;;20.60;61.21;100347.63;5030956;28;20060;-69
2023/07/15 02:25:21;;;;;;;4.18;2.60;;;;;;;20.60;61.57;100353.84;5012372;28;20546;-69
2023/07/15 02:27:49;;;;;;;4.95;2.47;;;;;;;20.55;61.71;100359.28;5030865;28;20392;-69
2023/07/15 02:30:14;;;;;;;4.03;2.70;;;;;;;20.55;62.26;100354.66;5030980;28;20082;-69
2023/07/15 02:32:41;;;;;;;3.00;2.50;;;;;;;20.54;61.83;100366.59;5030660;28;20033;-69
2023/07/15 02:35:12;;;;;;;5.10;2.50;;;;;;;20.49;61.79;100368.47;5030846;28;20108;-69
2023/07/15 02:37:43;;;;;;;3.55;3.00;;;;;;;20.42;62.34;100360.63;5030582;28;20504;-69
2023/07/15 02:40:10;;;;;;;10.00;2.90;;;;;;;20.42;62.91;100362.53;5012995;28;20485;-69
2023/07/15 02:42:36;;;;;;;8.25;2.67;;;;;;;20.34;62.29;100363.88;5030748;28;20099;-69
2023/07/15 02:45:03;;;;;;;6.28;2.55;;;;;;;20.34;63.42;100364.69;5030612;28;20120;-69
2023/07/15 02:47:29;;;;;;;7.20;2.80;;;;;;;20.34;62.79;100361.19;5030700;28;20029;-69
2023/07/15 02:49:56;;;;;;;5.75;2.90;;;;;;;20.27;63.05;100360.66;5030378;28;20033;-69
2023/07/15 02:52:23;;;;;;;5.13;3.05;;;;;;;20.27;63.66;100357.94;5030316;28;20129;-69
2023/07/15 02:54:49;;;;;;;6.10;2.25;;;;;;;20.23;63.39;100357.69;5030442;28;20404;-69
2023/07/15 02:57:14;;;;;;;4.55;2.92;;;;;;;20.19;64.27;100353.06;5030418;28;20034;-69
2023/07/15 02:59:39;;;;;;;2.60;2.40;;;;;;;20.19;63.76;100351.19;5030395;28;20037;-69
2023/07/15 03:02:05;;;;;;;3.63;2.45;;;;;;;20.12;64.54;100356.06;5012419;28;20067;-69
2023/07/15 03:04:30;;;;;;;3.35;3.05;;;;;;;20.06;64.74;100362.56;5030196;28;20116;-69
2023/07/15 03:06:58;;;;;;;5.72;3.00;;;;;;;19.99;64.96;100353.91;5030300;28;20041;-69
2023/07/15 03:09:25;;;;;;;4.70;3.38;;;;;;;19.96;65.13;100354.44;5030247;28;20029;-69
2023/07/15 03:11:50;;;;;;;10.70;3.90;;;;;;;19.91;65.63;100360.66;5030015;28;20117;-70
2023/07/15 03:14:15;;;;;;;5.10;2.90;;;;;;;19.93;65.42;100355.78;5029854;28;20119;-69
2023/07/15 03:16:41;;;;;;;3.25;2.33;;;;;;;19.87;65.07;100341.47;5030142;28;20029;-69
2023/07/15 03:19:06;;;;;;;10.65;3.50;;;;;;;19.92;65.33;100355.00;5030039;28;20030;-69
2023/07/15 03:21:31;;;;;;;6.00;2.70;;;;;;;19.91;65.44;100350.66;5030044;28;20410;-69
2023/07/15 03:23:57;;;;;;;7.35;2.63;;;;;;;19.88;65.78;100356.59;5030049;28;20468;-69
2023/07/15 03:26:22;;;;;;;6.85;3.10;;;;;;;19.84;66.11;100360.94;5030096;28;20994;-69
2023/07/15 03:28:47;;;;;;;5.22;2.95;;;;;;;19.83;65.82;100353.09;5029853;28;20061;-69
2023/07/15 03:31:13;;;;;;;3.63;2.25;;;;;;;19.82;66.01;100354.97;5029930;28;20033;-69
2023/07/15 03:33:38;;;;;;;5.78;2.85;;;;;;;19.82;65.82;100359.59;5029844;28;20060;-69
2023/07/15 03:36:04;;;;;;;5.80;2.65;;;;;;;19.81;65.92;100361.50;5029502;28;20134;-69
2023/07/15 03:38:29;;;;;;;5.85;2.38;;;;;;;19.77;67.21;100359.59;5029827;28;20065;-69
2023/07/15 03:40:55;;;;;;;7.47;2.63;;;;;;;19.72;66.77;100362.28;5029555;28;20041;-68
2023/07/15 03:43:20;;;;;;;3.45;2.58;;;;;;;19.69;66.56;100360.94;5029629;28;20400;-69
2023/07/15 03:45:46;;;;;;;7.32;2.40;;;;;;;19.67;68.20;100363.09;5029265;28;20276;-69
2023/07/15 03:48:11;;;;;;;3.33;2.90;;;;;;;19.66;67.35;100359.56;5029563;28;20087;-69
2023/07/15 03:50:37;;;;;;;5.20;2.63;;;;;;;19.67;67.35;100363.91;5029529;28;20034;-69
2023/07/15 03:53:02;;;;;;;4.85;2.63;;;;;;;19.65;66.79;100359.84;5029534;28;20453;-69
2023/07/15 03:55:29;;;;;;;16.42;2.85;;;;;;;19.69;66.93;100364.44;5029382;28;20493;-69
2023/07/15 03:57:55;;;;;;;5.22;3.33;;;;;;;19.71;66.62;100358.78;5029606;28;20064;-69
2023/07/15 04:00:21;;;;;;;3.78;2.50;;;;;;;19.68;66.74;100362.84;5029455;28;20473;-69
2023/07/15 04:02:49;;;;;;;3.55;3.05;;;;;;;19.65;66.82;100359.84;5029251;28;20042;-69
2023/07/15 04:05:15;;;;;;;4.30;2.67;;;;;;;19.63;68.08;100359.28;5029428;28;20045;-68
2023/07/15 04:07:40;;;;;;;4.70;2.78;;;;;;;19.55;70.33;100351.69;5029510;28;20152;-69
2023/07/15 04:10:06;;;;;;;3.65;2.63;;;;;;;19.51;68.90;100354.13;5029396;28;20401;-69
2023/07/15 04:12:32;;;;;;;4.15;2.90;;;;;;;19.49;70.50;100364.38;5029282;28;20037;-69
2023/07/15 04:14:57;;;;;;;4.95;2.83;;;;;;;19.45;69.11;100353.28;5029246;28;20075;-68
2023/07/15 04:17:22;;;;;;;4.90;2.60;;;;;;;19.43;69.38;100351.94;5029175;28;20031;-69
2023/07/15 04:19:48;;;;;;;11.15;2.63;;;;;;;19.42;69.44;100361.16;5011391;28;20483;-69
2023/07/15 04:22:13;;;;;;;6.13;2.92;;;;;;;19.43;69.23;100357.34;5029216;28;20043;-69
2023/07/15 04:24:38;;;;;;;6.63;3.05;;;;;;;19.42;69.19;100353.03;5029267;28;20041;-69
2023/07/15 04:27:04;;;;;;;10.18;3.20;;;;;;;19.45;69.64;100352.50;5029198;28;20119;-69
2023/07/15 04:29:30;;;;;;;4.80;2.83;;;;;;;19.49;68.97;100362.50;5029229;28;20048;-69
2023/07/15 04:31:56;;;;;;;7.93;3.08;;;;;;;19.49;69.59;100361.69;5029183;28;20029;-69
2023/07/15 04:34:21;;;;;;;6.45;3.17;;;;;;;19.49;70.00;100361.69;5029066;28;20397;-69
2023/07/15 04:36:47;;;;;;;6.40;3.88;;;;;;;19.47;70.01;100356.56;5028999;28;20060;-69
2023/07/15 04:39:12;;;;;;;6.50;3.35;;;;;;;19.50;69.73;100366.03;5029151;28;20071;-69
2023/07/15 04:41:37;;;;;;;6.63;2.83;;;;;;;19.48;69.60;100363.56;5029175;28;20159;-69
2023/07/15 04:44:03;;;;;;;5.97;3.20;;;;;;;19.62;69.83;100380.13;5029087;28;20025;-69
2023/07/15 04:46:29;;;;;;;6.05;2.78;;;;;;;19.66;69.84;100374.97;5029098;28;20900;-69
2023/07/15 04:48:54;;;;;;;5.15;3.20;;;;;;;19.71;69.59;100366.91;5031435;28;20103;-69
2023/07/15 04:51:20;;;;;;;4.88;2.85;;;;;;;19.79;70.19;100379.09;5032672;28;20025;-69
2023/07/15 04:53:46;;;;;;;4.47;3.22;;;;;;;19.86;69.74;100385.03;5032498;28;20469;-69
2023/07/15 04:56:11;;;;;;;3.17;2.88;;;;;;;19.90;69.97;100383.41;5032689;28;20552;-69
2023/07/15 04:58:37;;;;;;;7.63;3.65;;;;;;;19.93;69.07;100374.75;5032686;28;20034;-69
2023/07/15 05:01:03;;;;;;;6.20;2.70;;;;;;;19.99;69.40;100368.25;5032292;28;20026;-69
2023/07/15 05:03:29;;;;;;;7.80;3.00;;;;;;;20.01;71.09;100367.97;5032441;28;20060;-69
2023/07/15 05:05:54;;;;;;;6.97;3.47;;;;;;;20.10;69.98;100374.47;5032318;28;20036;-69
2023/07/15 05:08:22;;;;;;;4.95;3.13;;;;;;;20.13;70.23;100379.34;5014812;28;20029;-69
2023/07/15 05:10:54;;;;;;;10.00;3.55;;;;;;;20.17;70.14;100380.41;5032419;28;20381;-69
2023/07/15 05:13:19;;;;;;;4.80;3.08;;;;;;;20.24;69.77;100380.16;5032011;28;20041;-69
2023/07/15 05:15:45;;;;;;;17.17;4.97;;;;;;;20.26;69.77;100373.38;5014293;28;20033;-69
2023/07/15 05:18:10;;;;;;;7.85;3.35;;;;;;;20.27;69.72;100369.56;5032215;28;20102;-70
2023/07/15 05:20:39;;;;;;;4.53;3.10;;;;;;;20.28;69.21;100370.41;5032114;28;20481;-69
2023/07/15 05:23:05;;;;;;;4.45;3.38;;;;;;;20.29;69.00;100375.53;5032150;28;20068;-69
2023/07/15 05:25:31;;;;;;;7.95;3.42;;;;;;;20.32;69.12;100374.97;5032050;28;20044;-68
2023/07/15 05:27:58;;;;;;;6.82;3.55;;;;;;;20.34;68.93;100372.00;5031749;28;20060;-69
2023/07/15 05:30:24;;;;;;;5.95;3.75;;;;;;;20.35;68.73;100365.50;5050753;28;20033;-68
2023/07/15 05:32:49;;;;;;;7.38;3.50;;;;;;;20.39;69.11;100371.19;5050888;28;20438;-69
2023/07/15 05:35:15;;;;;;;5.97;3.75;;;;;;;20.45;69.14;100362.78;5032872;28;20033;-68
2023/07/15 05:37:41;;;;;;;11.07;3.40;;;;;;;20.52;68.86;100371.44;5050723;28;20112;-69
2023/07/15 05:40:10;;;;;;;11.00;3.30;;;;;;;20.57;70.13;100376.06;5050902;28;20021;-68
2023/07/15 05:42:42;;;;;;;5.57;3.05;;;;;;;20.60;69.90;100385.53;5050727;28;20044;-68
2023/07/15 05:45:09;;;;;;;5.57;3.20;;;;;;;20.67;68.73;100375.22;5032747;28;20509;-68
2023/07/15 05:47:34;;;;;;;6.50;3.25;;;;;;;20.76;69.44;100376.28;5050555;28;20091;-69
2023/07/15 05:50:01;;;;;;;8.50;3.45;;;;;;;20.85;69.17;100381.94;5050568;28;20424;-69
2023/07/15 05:52:26;;;;;;;10.35;2.92;;;;;;;20.88;68.58;100393.06;5050478;28;20032;-69
2023/07/15 05:54:52;;;;;;;5.60;3.30;;;;;;;20.92;68.71;100396.81;5050271;28;20059;-69
2023/07/15 05:57:17;;;;;;;6.65;3.22;;;;;;;20.95;68.28;100390.84;5050550;28;20059;-69
2023/07/15 05:59:42;;;;;;;4.00;2.60;;;;;;;20.99;68.63;100397.34;5048959;28;20116;-68
2023/07/15 06:02:08;;;;;;;8.07;3.80;;;;;;;21.11;69.55;100396.19;5049948;28;20091;-69
2023/07/15 06:04:33;;;;;;;4.38;2.42;;;;;;;21.26;69.08;100396.13;5050362;28;20036;-68
2023/07/15 06:06:58;;;;;;;10.20;3.28;;;;;;;21.45;67.71;100389.00;5050275;28;20567;-69
2023/07/15 06:09:24;;;;;;;7.45;2.25;;;;;;;21.73;68.29;100389.38;5050191;28;20115;-69
2023/07/15 06:11:49;;;;;;;10.55;3.70;;;;;;;21.89;66.26;100380.00;5049799;28;20067;-69
2023/07/15 06:14:15;;;;;;;6.07;3.00;;;;;;;21.89;66.77;100388.16;5050237;28;20057;-69
2023/07/15 06:16:40;;;;;;;4.00;2.63;;;;;;;21.86;66.61;100387.91;5050159;28;20546;-69
2023/07/15 06:19:06;;;;;;;8.18;3.40;;;;;;;21.77;66.00;100376.03;5032220;28;20871;-69
2023/07/15 06:21:31;;;;;;;4.03;2.88;;;;;;;21.81;66.72;100388.75;5050125;28;20040;-69
2023/07/15 06:23:57;;;;;;;6.95;3.20;;;;;;;21.87;67.57;100397.66;5049993;28;20061;-69
2023/07/15 06:26:22;;;;;;;6.25;2.50;;;;;;;21.92;66.95;100388.69;5049927;28;20037;-69
2023/07/15 06:28:47;;;;;;;6.90;2.75;;;;;;;21.97;67.77;100405.75;5049781;28;20051;-70
2023/07/15 06:31:13;;;;;;;4.22;2.63;;;;;;;22.03;68.21;100399.19;5049758;28;20043;-69
2023/07/15 06:33:39;;;;;;;4.90;2.30;;;;;;;22.13;68.72;100400.19;5049519;28;20117;-69
2023/07/15 06:36:04;;;;;;;9.75;3.83;;;;;;;22.21;69.25;100394.16;5049634;28;20036;-69
2023/07/15 06:38:30;;;;;;;3.40;2.30;;;;;;;22.31;70.63;100392.16;5050022;28;20032;-70
2023/07/15 06:40:56;;;;;;;3.13;1.90;;;;;;;22.34;71.01;100401.66;5049497;28;20041;-70
2023/07/15 06:43:22;;;;;;;5.10;2.28;;;;;;;22.35;72.22;100387.00;5049579;28;20079;-70
2023/07/15 06:45:47;;;;;;;4.05;2.13;;;;;;;22.42;72.36;100398.31;5049488;28;20037;-70
2023/07/15 06:48:13;;;;;;;2.75;2.13;;;;;;;22.53;73.83;100393.56;5036195;28;20063;-67
2023/07/15 06:50:38;;;;;;;8.90;2.50;;;;;;;22.65;73.53;100404.88;5048875;28;20505;-66
2023/07/15 06:53:04;;;;;;;3.67;2.15;;;;;;;22.78;74.54;100394.41;5049165;28;20040;-66
2023/07/15 06:55:30;;;;;;;2.03;1.50;;;;;;;22.85;73.72;100395.69;5031074;28;20041;-66
2023/07/15 06:57:55;;;;;;;4.85;2.20;;;;;;;22.86;72.71;100405.47;5048615;28;20028;-67
2023/07/15 07:00:22;;;;;;;4.85;1.70;;;;;;;22.90;73.46;100397.53;5049045;28;20617;-67
2023/07/15 07:02:48;;;;;;;3.95;2.15;;;;;;;22.91;74.05;100391.00;5048711;28;20056;-70
2023/07/15 07:05:15;;;;;;;3.67;1.80;;;;;;;22.85;73.64;100392.16;5041025;28;20051;-70
2023/07/15 07:07:40;;;;;;;2.55;1.90;;;;;;;22.81;74.66;100380.22;5029076;28;20033;-70
2023/07/15 07:10:06;;;;;;;2.55;1.60;;;;;;;22.83;75.61;100391.63;5029352;28;20103;-70
2023/07/15 07:12:32;;;;;;;2.00;1.67;;;;;;;22.86;73.99;100397.28;5029369;28;20069;-71
2023/07/15 07:14:57;;;;;;;3.40;1.70;;;;;;;22.94;76.39;100383.06;5011635;28;20037;-70
2023/07/15 07:17:22;;;;;;;2.30;1.45;;;;;;;22.91;74.01;100383.63;5039325;28;20084;-70
2023/07/15 07:19:48;;;;;;;5.30;1.85;;;;;;;22.89;75.63;100387.75;5048768;28;20033;-70
2023/07/15 07:22:13;;;;;;;3.83;1.85;;;;;;;22.87;74.59;100393.50;5048921;28;20070;-71
2023/07/15 07:24:39;;;;;;;4.82;1.80;;;;;;;22.90;74.32;100402.97;5048820;28;20056;-70
2023/07/15 07:27:04;;;;;;;2.97;1.50;;;;;;;22.91;74.29;100404.59;5048281;28;20124;-70
2023/07/15 07:29:30;;;;;;;2.55;2.00;;;;;;;22.99;73.28;100393.09;5016078;28;20033;-71
2023/07/15 07:31:55;;;;;;;1.95;1.75;;;;;;;23.16;71.94;100403.47;5029625;28;20083;-71
2023/07/15 07:34:20;;;;;;;4.38;1.98;;;;;;;23.25;71.10;100409.91;5038899;28;20037;-71
2023/07/15 07:36:46;;;;;;;4.82;1.67;;;;;;;23.42;70.13;100417.56;5048477;28;20035;-71
2023/07/15 07:39:12;;;;;;;3.97;1.88;;;;;;;23.55;70.80;100411.41;5048016;28;20025;-71
2023/07/15 07:41:38;;;;;;;4.75;2.05;;;;;;;23.72;71.23;100421.00;5048504;28;20110;-71
2023/07/15 07:44:04;;;;;;;5.05;1.95;;;;;;;23.81;71.03;100424.66;5048704;28;20044;-71
2023/07/15 07:46:29;;;;;;;6.40;2.15;;;;;;;23.79;71.25;100424.16;5048403;28;20039;-71
2023/07/15 07:48:55;;;;;;;3.75;2.00;;;;;;;23.71;70.19;100413.88;5048330;28;20036;-71
2023/07/15 07:51:20;;;;;;;1.70;1.35;;;;;;;23.77;70.80;100416.28;5048263;28;20029;-71
2023/07/15 07:53:45;;;;;;;4.15;1.98;;;;;;;23.92;70.64;100412.53;5029996;28;20041;-71
2023/07/15 07:56:11;;;;;;;3.78;1.55;;;;;;;24.02;71.81;100409.59;5029466;28;20045;-71
2023/07/15 07:58:38;;;;;;;4.32;1.92;;;;;;;24.12;69.78;100411.38;5011519;28;20109;-71
2023/07/15 08:01:04;;;;;;;3.20;1.42;;;;;;;24.27;70.01;100410.31;5011530;28;20033;-71
2023/07/15 08:03:30;;;;;;;4.90;1.75;;;;;;;24.29;69.30;100402.63;5028303;28;20049;-70
2023/07/15 08:05:57;;;;;;;5.57;2.10;;;;;;;24.38;70.26;100409.00;5039634;28;20095;-70
2023/07/15 08:08:23;;;;;;;4.90;1.95;;;;;;;24.53;70.62;100396.25;5046838;28;20033;-71
2023/07/15 08:10:49;;;;;;;4.05;1.67;;;;;;;24.63;69.02;100391.41;5047807;28;20384;-70
2023/07/15 08:13:14;;;;;;;3.28;1.50;;;;;;;24.69;69.03;100398.38;5048081;28;20124;-69
2023/07/15 08:15:40;;;;;;;1.73;1.40;;;;;;;24.70;70.46;100416.34;5047739;28;20060;-70
2023/07/15 08:18:06;;;;;;;13.30;2.03;;;;;;;24.67;70.78;100422.41;5037137;28;20032;-68
2023/07/15 08:20:32;;;;;;;7.32;1.60;;;;;;;24.62;70.62;100418.97;5030295;28;20032;-71
2023/07/15 08:22:59;;;;;;;3.58;1.98;;;;;;;24.83;70.00;100420.19;5045655;28;20040;-72
2023/07/15 08:25:25;;;;;;;3.78;1.40;;;;;;;26.28;65.59;100415.91;5050702;28;20025;-72
2023/07/15 08:27:51;;;;;;;5.30;2.40;;;;;;;26.77;62.80;100425.81;5051623;28;20968;-70
2023/07/15 08:30:18;;;;;;;3.28;1.90;;;;;;;26.84;63.17;100417.97;5051876;28;20055;-71
2023/07/15 08:32:44;;;;;;;3.03;2.30;;;;;;;26.59;63.11;100427.72;5049261;28;20056;-70
2023/07/15 08:35:09;;;;;;;2.15;1.00;;;;;;;26.52;64.65;100427.34;5044977;28;20484;-71
2023/07/15 08:37:34;;;;;;;20.40;4.53;;;;;;;26.29;63.95;100426.53;5050770;28;20123;-72
2023/07/15 08:40:00;;;;;;;4.18;1.85;;;;;;;26.22;63.80;100428.91;5048774;28;20513;-74
2023/07/15 08:42:25;;;;;;;3.30;1.85;;;;;;;25.83;64.12;100438.56;5043964;28;20044;-72
2023/07/15 08:44:51;;;;;;;7.03;2.00;;;;;;;25.55;65.08;100430.47;5031903;28;20033;-72
2023/07/15 08:47:21;;;;;;;3.25;1.60;;;;;;;25.38;65.69;100443.13;5041093;28;20387;-72
2023/07/15 08:49:52;;;;;;;8.20;1.70;;;;;;;25.28;66.98;100444.97;5042699;28;20461;-75
2023/07/15 08:52:18;;;;;;;2.03;1.40;;;;;;;25.12;67.53;100449.09;5033044;28;20037;-71
2023/07/15 08:54:48;;;;;;;2.75;1.40;;;;;;;25.10;67.38;100454.06;5046151;28;20125;-74
2023/07/15 08:57:16;;;;;;;5.70;2.10;;;;;;;24.91;68.14;100454.16;5042552;28;20033;-73
2023/07/15 08:59:41;;;;;;;12.40;1.90;;;;;;;24.84;68.83;100460.00;5044811;28;20017;-72
2023/07/15 09:02:07;;;;;;;2.75;1.55;;;;;;;24.75;69.68;100464.53;5051027;28;20060;-73
2023/07/15 09:04:33;;;;;;;3.78;1.60;;;;;;;24.62;70.75;100468.06;5048547;28;20044;-72
2023/07/15 09:06:59;;;;;;;2.55;1.90;;;;;;;24.43;70.18;100473.53;5042824;28;20044;-71
2023/07/15 09:09:32;;;;;;;6.50;3.03;;;;;;;24.43;71.07;100490.69;5050041;28;20029;-72
2023/07/15 09:12:02;;;;;;;1.75;1.38;;;;;;;24.34;71.13;100486.22;5036245;28;20037;-71
2023/07/15 09:14:27;;;;;;;2.85;1.33;;;;;;;24.24;69.13;100487.22;5032034;28;20025;-72
2023/07/15 09:16:55;;;;;;;7.20;3.08;;;;;;;24.11;69.70;100493.41;5037827;28;20139;-71
2023/07/15 09:19:26;;;;;;;3.28;1.80;;;;;;;23.96;69.36;100503.44;5050751;28;20468;-72
2023/07/15 09:21:55;;;;;;;3.70;1.83;;;;;;;23.85;70.96;100504.69;5050975;28;20035;-71
2023/07/15 09:24:21;;;;;;;5.35;2.65;;;;;;;23.71;70.87;100490.13;5050970;28;20029;-71
2023/07/15 09:26:51;;;;;;;4.18;1.60;;;;;;;23.71;70.82;100490.13;5034295;28;20040;-71
2023/07/15 09:29:19;;;;;;;2.83;2.33;;;;;;;23.72;70.66;100483.63;5044251;28;20029;-71
2023/07/15 09:31:44;;;;;;;7.22;2.03;;;;;;;23.74;70.59;100476.78;5050408;28;20044;-71
2023/07/15 09:34:10;;;;;;;3.25;1.98;;;;;;;23.84;70.27;100465.75;5050311;28;20029;-71
2023/07/15 09:36:35;;;;;;;5.95;1.88;;;;;;;23.90;70.37;100471.94;5050220;28;20029;-71
2023/07/15 09:39:02;;;;;;;2.47;1.70;;;;;;;23.92;70.50;100468.88;5032596;28;20040;-71
2023/07/15 09:41:28;;;;;;;4.75;1.90;;;;;;;23.98;70.52;100471.25;5050555;28;20032;-71
2023/07/15 09:43:53;;;;;;;3.30;1.98;;;;;;;24.05;71.05;100476.31;5050392;28;20029;-71
2023/07/15 09:46:21;;;;;;;6.00;2.15;;;;;;;24.13;70.64;100483.84;5039313;28;20072;-71
2023/07/15 09:48:51;;;;;;;3.20;1.75;;;;;;;24.24;69.02;100481.75;5048071;28;20025;-71
2023/07/15 09:51:18;;;;;;;3.45;1.80;;;;;;;24.38;68.27;100493.50;5049337;28;20025;-72
2023/07/15 09:53:51;;;;;;;3.97;2.17;;;;;;;24.40;67.90;100498.69;5049934;28;20032;-71
2023/07/15 09:56:30;;;;;;;6.45;2.00;;;;;;;24.42;68.22;100500.00;5049963;28;20491;-70
2023/07/15 09:59:04;;;;;;;3.90;2.30;;;;;;;24.51;68.02;100497.41;5050118;28;20034;-69
2023/07/15 10:01:40;;;;;;;10.23;3.38;;;;;;;24.52;67.89;100506.41;5050150;28;20029;-70
2023/07/15 10:04:18;;;;;;;4.20;1.90;;;;;;;24.43;67.92;100512.50;5031264;28;20540;-70
2023/07/15 10:06:44;;;;;;;7.05;2.28;;;;;;;24.28;68.67;100521.72;5029584;28;20037;-71
2023/07/15 10:09:10;;;;;;;11.52;3.45;;;;;;;24.12;69.48;100535.91;5030211;28;20053;-72
2023/07/15 10:11:36;;;;;;;4.00;1.70;;;;;;;23.98;70.11;100525.75;5030826;28;20120;-67
2023/07/15 10:14:03;;;;;;;2.53;2.20;;;;;;;23.84;70.22;100519.38;5030863;28;20033;-69
2023/07/15 10:16:33;;;;;;;8.65;2.35;;;;;;;23.69;72.38;100516.88;5033311;28;20491;-69
2023/07/15 10:19:01;;;;;;;3.83;2.70;;;;;;;23.59;73.20;100531.41;5049601;28;20112;-70
2023/07/15 10:21:26;;;;;;;12.13;5.45;;;;;;;23.47;76.08;100514.69;5049373;28;20443;-70
2023/07/15 10:24:09;;;;;;;8.25;3.72;;;;;;;23.37;76.60;100508.28;5049092;28;20120;-70
2023/07/15 10:26:34;;;;;;;4.90;2.20;;;;;;;23.23;79.31;100509.25;5049143;28;20027;-70
2023/07/15 10:29:02;;;;;;;2.85;2.10;;;;;;;23.05;80.93;100475.44;5031258;28;20029;-70
2023/07/15 10:31:27;;;;;;;3.47;1.92;;;;;;;22.89;80.06;100470.13;5049645;28;20369;-70
2023/07/15 10:33:58;;;;;;;2.85;1.90;;;;;;;22.73;82.35;100471.41;5049376;28;20025;-71
2023/07/15 10:36:35;;;;;;;4.93;1.83;;;;;;;22.67;79.95;100483.44;5049606;28;20041;-71
2023/07/15 10:39:20;;;;;;;6.55;2.13;;;;;;;22.70;80.82;100480.13;5049499;28;20021;-70
2023/07/15 10:41:51;;;;;;;5.13;2.40;;;;;;;22.65;83.05;100475.56;5049392;28;20059;-70
2023/07/15 10:44:24;;;;;;;4.53;1.80;;;;;;;22.78;84.84;100478.72;5030414;28;20045;-73
2023/07/15 10:46:59;;;;;;;2.20;1.88;;;;;;;22.97;85.21;100471.44;5017290;28;20120;-72
2023/07/15 10:49:24;;;;;;;3.80;2.63;;;;;;;23.09;82.06;100477.31;5049298;28;20032;-72
2023/07/15 10:51:54;;;;;;;6.60;2.50;;;;;;;23.22;84.42;100480.44;5034880;28;20033;-71
2023/07/15 10:54:21;;;;;;;4.65;2.70;;;;;;;23.30;82.20;100477.88;5012397;28;20436;-70
2023/07/15 10:56:47;;;;;;;6.53;2.13;;;;;;;23.32;81.84;100483.03;5029789;28;20061;-70
2023/07/15 10:59:13;;;;;;;5.80;2.30;;;;;;;23.28;81.70;100499.13;5030022;28;20118;-68
2023/07/15 11:01:38;;;;;;;4.18;1.83;;;;;;;23.16;80.83;100476.94;5029969;28;20029;-68
2023/07/15 11:04:05;;;;;;;5.07;2.20;;;;;;;23.14;82.19;100495.50;5029947;28;20057;-71
2023/07/15 11:06:32;;;;;;;3.15;2.08;;;;;;;23.14;82.00;100509.09;5029585;28;20396;-69
2023/07/15 11:08:58;;;;;;;12.77;3.85;;;;;;;23.10;82.27;100502.59;5029853;28;20051;-71
2023/07/15 11:11:23;;;;;;;2.97;1.52;;;;;;;23.11;83.42;100515.94;5037087;28;20395;-70
2023/07/15 11:13:48;;;;;;;2.60;2.03;;;;;;;23.11;81.60;100510.47;5048770;28;20033;-69
2023/07/15 11:16:14;;;;;;;9.27;2.22;;;;;;;23.10;79.94;100499.88;5047380;28;20120;-71
2023/07/15 11:18:39;;;;;;;11.30;2.45;;;;;;;23.07;80.40;100501.25;5048433;28;20049;-72
2023/07/15 11:21:06;;;;;;;6.97;2.17;;;;;;;23.11;79.35;100502.31;5048837;28;20044;-72